sensor_id;sensor_type;location;lat;lon;timestamp;pressure;altitude;pressure_sealevel;temperature;humidity
11099;BME280;12223;42.650;23.364;2023-07-13T00:00:10;94983.03;;;21.32;100.00
11099;BME280;12223;42.650;23.364;2023-07-13T00:02:37;94976.69;;;21.22;100.00
11099;BME280;12223;42.650;23.364;2023-07-13T00:05:04;94980.66;;;21.30;100.00
11099;BME280;12223;42.650;23.364;2023-07-13T00:07:33;94977.13;;;21.35;100.00
11099;BME280;12223;42.650;23.364;2023-07-13T00:10:00;94973.94;;;21.27;100.00
11099;BME280;12223;42.650;23.364;2023-07-13T00:12:29;94976.63;;;21.27;100.00
11099;BME280;12223;42.650;23.364;2023-07-13T00:14:57;94980.97;;;21.23;100.00
11099;BME280;12223;42.650;23.364;2023-07-13T00:17:24;94974.53;;;21.19;100.00
11099;BME280;12223;42.650;23.364;2023-07-13T00:19:51;94970.22;;;21.23;100.00
11099;BME280;12223;42.650;23.364;2023-07-13T00:22:18;94970.25;;;21.18;100.00
11099;BME280;12223;42.650;23.364;2023-07-13T00:24:46;94976.72;;;21.17;100.00
11099;BME280;12223;42.650;23.364;2023-07-13T00:27:15;94971.34;;;21.12;100.00
11099;BME280;12223;42.650;23.364;2023-07-13T00:29:43;94977.25;;;21.14;100.00
11099;BME280;12223;42.650;23.364;2023-07-13T00:32:10;94974.03;;;21.12;100.00
11099;BME280;12223;42.650;23.364;2023-07-13T00:34:38;94974.66;;;20.99;100.00
11099;BME280;12223;42.650;23.364;2023-07-13T00:37:05;94962.88;;;20.95;100.00
11099;BME280;12223;42.650;23.364;2023-07-13T00:39:33;94958.59;;;20.94;100.00
11099;BME280;12223;42.650;23.364;2023-07-13T00:42:02;94957.28;;;20.92;100.00
11099;BME280;12223;42.650;23.364;2023-07-13T00:44:29;94953.84;;;20.81;100.00
11099;BME280;12223;42.650;23.364;2023-07-13T00:46:56;94969.41;;;20.84;100.00
11099;BME280;12223;42.650;23.364;2023-07-13T00:49:25;94964.56;;;20.86;100.00
11099;BME280;12223;42.650;23.364;2023-07-13T00:51:56;94963.75;;;20.85;100.00
11099;BME280;12223;42.650;23.364;2023-07-13T00:54:27;94970.94;;;20.95;100.00
11099;BME280;12223;42.650;23.364;2023-07-13T00:56:58;94962.06;;;20.95;100.00
11099;BME280;12223;42.650;23.364;2023-07-13T00:59:27;94960.19;;;20.95;100.00
11099;BME280;12223;42.650;23.364;2023-07-13T01:01:55;94963.44;;;20.92;100.00
11099;BME280;12223;42.650;23.364;2023-07-13T01:04:24;94953.69;;;21.01;100.00
11099;BME280;12223;42.650;23.364;2023-07-13T01:06:51;94953.38;;;21.08;100.00
11099;BME280;12223;42.650;23.364;2023-07-13T01:09:19;94948.28;;;21.11;100.00
11099;BME280;12223;42.650;23.364;2023-07-13T01:11:47;94947.34;;;20.92;100.00
11099;BME280;12223;42.650;23.364;2023-07-13T01:14:14;94949.44;;;20.95;100.00
11099;BME280;12223;42.650;23.364;2023-07-13T01:16:45;94953.16;;;20.99;100.00
11099;BME280;12223;42.650;23.364;2023-07-13T01:19:21;94951.38;;;20.90;100.00
11099;BME280;12223;42.650;23.364;2023-07-13T01:21:53;94951.69;;;20.83;100.00
11099;BME280;12223;42.650;23.364;2023-07-13T01:24:19;94954.94;;;20.75;100.00
11099;BME280;12223;42.650;23.364;2023-07-13T01:26:46;94946.41;;;20.68;100.00
11099;BME280;12223;42.650;23.364;2023-07-13T01:29:13;94949.03;;;20.78;100.00
11099;BME280;12223;42.650;23.364;2023-07-13T01:31:40;94949.59;;;20.75;100.00
11099;BME280;12223;42.650;23.364;2023-07-13T01:34:07;94952.88;;;20.67;100.00
11099;BME280;12223;42.650;23.364;2023-07-13T01:36:33;94955.25;;;20.73;100.00
11099;BME280;12223;42.650;23.364;2023-07-13T01:39:03;94958.44;;;20.75;100.00
11099;BME280;12223;42.650;23.364;2023-07-13T01:41:30;94959.56;;;20.69;100.00
11099;BME280;12223;42.650;23.364;2023-07-13T01:43:56;94960.09;;;20.71;100.00
11099;BME280;12223;42.650;23.364;2023-07-13T01:46:23;94956.38;;;20.67;100.00
11099;BME280;12223;42.650;23.364;2023-07-13T01:48:50;94948.31;;;20.62;100.00
11099;BME280;12223;42.650;23.364;2023-07-13T01:51:19;94941.09;;;20.58;100.00
11099;BME280;12223;42.650;23.364;2023-07-13T01:53:46;94940.72;;;20.79;100.00
11099;BME280;12223;42.650;23.364;2023-07-13T01:56:14;94944.19;;;20.80;100.00
11099;BME280;12223;42.650;23.364;2023-07-13T01:58:40;94937.19;;;20.84;100.00
11099;BME280;12223;42.650;23.364;2023-07-13T02:01:07;94943.63;;;20.83;100.00
11099;BME280;12223;42.650;23.364;2023-07-13T02:03:34;94946.97;;;20.65;100.00
11099;BME280;12223;42.650;23.364;2023-07-13T02:06:01;94941.69;;;20.50;100.00
11099;BME280;12223;42.650;23.364;2023-07-13T02:08:28;94945.19;;;20.45;100.00
11099;BME280;12223;42.650;23.364;2023-07-13T02:10:55;94954.34;;;20.39;100.00
11099;BME280;12223;42.650;23.364;2023-07-13T02:13:23;94956.00;;;20.25;100.00
11099;BME280;12223;42.650;23.364;2023-07-13T02:15:50;94952.03;;;20.12;100.00
11099;BME280;12223;42.650;23.364;2023-07-13T02:18:17;94955.19;;;20.24;100.00
11099;BME280;12223;42.650;23.364;2023-07-13T02:20:44;94957.88;;;20.24;100.00
11099;BME280;12223;42.650;23.364;2023-07-13T02:23:11;94953.09;;;20.16;100.00
11099;BME280;12223;42.650;23.364;2023-07-13T02:25:38;94958.16;;;20.18;100.00
11099;BME280;12223;42.650;23.364;2023-07-13T02:28:04;94954.69;;;20.22;100.00
11099;BME280;12223;42.650;23.364;2023-07-13T02:30:34;94974.53;;;20.21;100.00
11099;BME280;12223;42.650;23.364;2023-07-13T02:33:01;94961.31;;;20.30;100.00
11099;BME280;12223;42.650;23.364;2023-07-13T02:35:28;94973.44;;;20.22;100.00
11099;BME280;12223;42.650;23.364;2023-07-13T02:37:54;94968.06;;;20.27;100.00
11099;BME280;12223;42.650;23.364;2023-07-13T02:40:21;94965.41;;;20.22;100.00
11099;BME280;12223;42.650;23.364;2023-07-13T02:42:48;94963.78;;;20.26;100.00
11099;BME280;12223;42.650;23.364;2023-07-13T02:45:15;94961.66;;;20.18;100.00
11099;BME280;12223;42.650;23.364;2023-07-13T02:47:43;94957.34;;;20.17;100.00
11099;BME280;12223;42.650;23.364;2023-07-13T02:50:10;94961.94;;;20.12;100.00
11099;BME280;12223;42.650;23.364;2023-07-13T02:52:37;94966.00;;;20.09;100.00
11099;BME280;12223;42.650;23.364;2023-07-13T02:55:04;94968.66;;;20.09;100.00
11099;BME280;12223;42.650;23.364;2023-07-13T02:57:31;94974.84;;;19.99;100.00
11099;BME280;12223;42.650;23.364;2023-07-13T02:59:58;94961.44;;;19.99;100.00
11099;BME280;12223;42.650;23.364;2023-07-13T03:02:25;94974.03;;;19.99;100.00
11099;BME280;12223;42.650;23.364;2023-07-13T03:04:55;94972.44;;;20.03;100.00
11099;BME280;12223;42.650;23.364;2023-07-13T03:07:21;94969.47;;;20.04;100.00
11099;BME280;12223;42.650;23.364;2023-07-13T03:09:48;94971.31;;;20.14;100.00
11099;BME280;12223;42.650;23.364;2023-07-13T03:12:15;94979.94;;;20.06;100.00
11099;BME280;12223;42.650;23.364;2023-07-13T03:14:42;94974.91;;;19.89;100.00
11099;BME280;12223;42.650;23.364;2023-07-13T03:17:08;94988.00;;;19.96;100.00
11099;BME280;12223;42.650;23.364;2023-07-13T03:19:35;94941.91;;;19.89;100.00
11099;BME280;12223;42.650;23.364;2023-07-13T03:22:04;94982.31;;;20.13;100.00
11099;BME280;12223;42.650;23.364;2023-07-13T03:24:32;94980.97;;;20.15;100.00
11099;BME280;12223;42.650;23.364;2023-07-13T03:27:00;94982.06;;;20.09;100.00
11099;BME280;12223;42.650;23.364;2023-07-13T03:29:27;94979.09;;;20.21;100.00
11099;BME280;12223;42.650;23.364;2023-07-13T03:31:54;94983.78;;;20.59;100.00
11099;BME280;12223;42.650;23.364;2023-07-13T03:34:21;94981.09;;;21.03;100.00
11099;BME280;12223;42.650;23.364;2023-07-13T03:36:47;94992.59;;;21.48;100.00
11099;BME280;12223;42.650;23.364;2023-07-13T03:39:16;94985.97;;;21.98;100.00
11099;BME280;12223;42.650;23.364;2023-07-13T03:41:42;94991.84;;;22.48;100.00
11099;BME280;12223;42.650;23.364;2023-07-13T03:44:09;94992.88;;;22.94;100.00
11099;BME280;12223;42.650;23.364;2023-07-13T03:46:36;94993.03;;;23.54;97.84
11099;BME280;12223;42.650;23.364;2023-07-13T03:49:04;94990.25;;;23.91;93.20
11099;BME280;12223;42.650;23.364;2023-07-13T03:51:31;94990.00;;;24.48;86.71
11099;BME280;12223;42.650;23.364;2023-07-13T03:53:58;94985.38;;;25.25;80.17
11099;BME280;12223;42.650;23.364;2023-07-13T03:56:26;94986.34;;;25.96;74.96
11099;BME280;12223;42.650;23.364;2023-07-13T03:58:53;94980.59;;;26.68;68.36
11099;BME280;12223;42.650;23.364;2023-07-13T04:01:22;94981.31;;;27.34;63.97
11099;BME280;12223;42.650;23.364;2023-07-13T04:03:49;94991.50;;;27.88;60.88
11099;BME280;12223;42.650;23.364;2023-07-13T04:06:17;94990.00;;;28.55;57.46
11099;BME280;12223;42.650;23.364;2023-07-13T04:08:47;94989.94;;;29.22;54.89
11099;BME280;12223;42.650;23.364;2023-07-13T04:11:15;94983.19;;;29.82;51.69
11099;BME280;12223;42.650;23.364;2023-07-13T04:13:44;94979.09;;;30.54;49.10
11099;BME280;12223;42.650;23.364;2023-07-13T04:16:11;94978.00;;;31.19;47.02
11099;BME280;12223;42.650;23.364;2023-07-13T04:18:38;94990.38;;;31.97;44.91
11099;BME280;12223;42.650;23.364;2023-07-13T04:21:05;94999.44;;;32.60;42.45
11099;BME280;12223;42.650;23.364;2023-07-13T04:23:31;94999.47;;;33.26;40.04
11099;BME280;12223;42.650;23.364;2023-07-13T04:25:58;95000.13;;;33.93;38.57
11099;BME280;12223;42.650;23.364;2023-07-13T04:28:26;95006.00;;;34.14;37.07
11099;BME280;12223;42.650;23.364;2023-07-13T04:30:54;95009.69;;;34.22;37.32
11099;BME280;12223;42.650;23.364;2023-07-13T04:33:22;95011.34;;;34.07;36.01
11099;BME280;12223;42.650;23.364;2023-07-13T04:35:49;95016.91;;;33.02;37.62
11099;BME280;12223;42.650;23.364;2023-07-13T04:38:20;95010.50;;;33.30;37.82
11099;BME280;12223;42.650;23.364;2023-07-13T04:40:47;95004.09;;;33.76;37.31
11099;BME280;12223;42.650;23.364;2023-07-13T04:43:14;95008.41;;;34.84;36.06
11099;BME280;12223;42.650;23.364;2023-07-13T04:45:41;95019.88;;;35.69;34.84
11099;BME280;12223;42.650;23.364;2023-07-13T04:48:09;95019.41;;;35.93;32.47
11099;BME280;12223;42.650;23.364;2023-07-13T04:50:36;95019.78;;;35.92;32.03
11099;BME280;12223;42.650;23.364;2023-07-13T04:53:03;95020.31;;;35.71;32.63
11099;BME280;12223;42.650;23.364;2023-07-13T04:55:30;95029.97;;;36.21;32.29
11099;BME280;12223;42.650;23.364;2023-07-13T04:57:58;95038.88;;;36.85;31.08
11099;BME280;12223;42.650;23.364;2023-07-13T05:00:25;95034.59;;;37.45;30.68
11099;BME280;12223;42.650;23.364;2023-07-13T05:02:54;95039.84;;;38.66;29.03
11099;BME280;12223;42.650;23.364;2023-07-13T05:05:25;95037.88;;;39.30;27.98
11099;BME280;12223;42.650;23.364;2023-07-13T05:07:52;95038.44;;;40.26;26.57
11099;BME280;12223;42.650;23.364;2023-07-13T05:10:19;95029.16;;;41.16;25.06
11099;BME280;12223;42.650;23.364;2023-07-13T05:12:46;95050.63;;;41.91;24.33
11099;BME280;12223;42.650;23.364;2023-07-13T05:15:13;95040.59;;;42.61;23.88
11099;BME280;12223;42.650;23.364;2023-07-13T05:17:40;95044.66;;;43.07;23.10
11099;BME280;12223;42.650;23.364;2023-07-13T05:20:08;95057.72;;;43.37;22.68
11099;BME280;12223;42.650;23.364;2023-07-13T05:22:36;95052.56;;;43.58;22.52
11099;BME280;12223;42.650;23.364;2023-07-13T05:25:04;95052.47;;;43.85;22.30
11099;BME280;12223;42.650;23.364;2023-07-13T05:27:32;95055.47;;;44.14;21.49
11099;BME280;12223;42.650;23.364;2023-07-13T05:29:59;95044.78;;;44.13;21.35
11099;BME280;12223;42.650;23.364;2023-07-13T05:32:25;95048.88;;;43.65;21.30
11099;BME280;12223;42.650;23.364;2023-07-13T05:34:52;95050.53;;;42.89;22.46
11099;BME280;12223;42.650;23.364;2023-07-13T05:37:19;95050.13;;;41.99;23.03
11099;BME280;12223;42.650;23.364;2023-07-13T05:39:47;95044.75;;;40.92;24.37
11099;BME280;12223;42.650;23.364;2023-07-13T05:42:14;95048.75;;;40.15;25.25
11099;BME280;12223;42.650;23.364;2023-07-13T05:44:41;95051.72;;;39.37;25.61
11099;BME280;12223;42.650;23.364;2023-07-13T05:47:08;95051.97;;;38.40;26.71
11099;BME280;12223;42.650;23.364;2023-07-13T05:49:34;95047.03;;;37.80;28.48
11099;BME280;12223;42.650;23.364;2023-07-13T05:52:01;95047.00;;;37.15;29.61
11099;BME280;12223;42.650;23.364;2023-07-13T05:54:28;95037.03;;;36.59;30.14
11099;BME280;12223;42.650;23.364;2023-07-13T05:56:56;95038.63;;;35.90;31.08
11099;BME280;12223;42.650;23.364;2023-07-13T05:59:23;95047.09;;;35.21;32.31
11099;BME280;12223;42.650;23.364;2023-07-13T06:01:50;95045.63;;;34.82;33.63
11099;BME280;12223;42.650;23.364;2023-07-13T06:04:18;95041.53;;;34.49;34.24
11099;BME280;12223;42.650;23.364;2023-07-13T06:06:45;95028.59;;;34.27;34.46
11099;BME280;12223;42.650;23.364;2023-07-13T06:09:12;95028.88;;;34.03;34.71
11099;BME280;12223;42.650;23.364;2023-07-13T06:11:39;95023.69;;;33.98;35.74
11099;BME280;12223;42.650;23.364;2023-07-13T06:14:07;95021.28;;;33.96;35.97
11099;BME280;12223;42.650;23.364;2023-07-13T06:16:34;95023.91;;;33.89;35.84
11099;BME280;12223;42.650;23.364;2023-07-13T06:19:00;95035.53;;;33.82;37.17
11099;BME280;12223;42.650;23.364;2023-07-13T06:21:27;95036.38;;;33.17;37.44
11099;BME280;12223;42.650;23.364;2023-07-13T06:23:54;95037.16;;;32.66;38.71
11099;BME280;12223;42.650;23.364;2023-07-13T06:26:21;95037.22;;;32.11;38.91
11099;BME280;12223;42.650;23.364;2023-07-13T06:28:48;95033.59;;;31.79;40.20
11099;BME280;12223;42.650;23.364;2023-07-13T06:31:16;95039.53;;;31.97;41.40
11099;BME280;12223;42.650;23.364;2023-07-13T06:33:43;95034.22;;;31.60;42.34
11099;BME280;12223;42.650;23.364;2023-07-13T06:36:10;95028.91;;;31.39;43.11
11099;BME280;12223;42.650;23.364;2023-07-13T06:38:37;95031.84;;;31.46;42.74
11099;BME280;12223;42.650;23.364;2023-07-13T06:41:05;95024.09;;;31.61;43.46
11099;BME280;12223;42.650;23.364;2023-07-13T06:43:31;95031.25;;;31.53;42.97
11099;BME280;12223;42.650;23.364;2023-07-13T06:45:58;95030.91;;;31.67;42.68
11099;BME280;12223;42.650;23.364;2023-07-13T06:48:27;95028.47;;;31.77;42.25
11099;BME280;12223;42.650;23.364;2023-07-13T06:50:54;95033.28;;;31.68;42.32
11099;BME280;12223;42.650;23.364;2023-07-13T06:53:22;95003.50;;;31.51;42.24
11099;BME280;12223;42.650;23.364;2023-07-13T06:55:49;95019.16;;;31.14;43.23
11099;BME280;12223;42.650;23.364;2023-07-13T06:58:17;95018.34;;;31.01;42.63
11099;BME280;12223;42.650;23.364;2023-07-13T07:00:44;95020.97;;;30.49;44.99
11099;BME280;12223;42.650;23.364;2023-07-13T07:03:11;95021.66;;;30.01;46.79
11099;BME280;12223;42.650;23.364;2023-07-13T07:05:39;95015.38;;;30.33;46.87
11099;BME280;12223;42.650;23.364;2023-07-13T07:08:06;95018.78;;;29.97;47.35
11099;BME280;12223;42.650;23.364;2023-07-13T07:10:34;95034.25;;;30.06;47.61
11099;BME280;12223;42.650;23.364;2023-07-13T07:13:02;95007.78;;;29.94;48.03
11099;BME280;12223;42.650;23.364;2023-07-13T07:15:29;95002.19;;;29.90;48.37
11099;BME280;12223;42.650;23.364;2023-07-13T07:17:56;95019.19;;;29.87;48.76
11099;BME280;12223;42.650;23.364;2023-07-13T07:20:23;95027.63;;;29.74;48.06
11099;BME280;12223;42.650;23.364;2023-07-13T07:22:51;95019.50;;;30.07;48.40
11099;BME280;12223;42.650;23.364;2023-07-13T07:25:18;95017.31;;;30.00;48.01
11099;BME280;12223;42.650;23.364;2023-07-13T07:27:45;95017.16;;;30.42;46.83
11099;BME280;12223;42.650;23.364;2023-07-13T07:30:12;95021.91;;;30.77;45.83
11099;BME280;12223;42.650;23.364;2023-07-13T07:32:40;95009.84;;;31.15;45.20
11099;BME280;12223;42.650;23.364;2023-07-13T07:35:08;95024.00;;;31.45;45.75
11099;BME280;12223;42.650;23.364;2023-07-13T07:37:35;95015.22;;;31.51;44.92
11099;BME280;12223;42.650;23.364;2023-07-13T07:40:04;95004.38;;;31.27;45.43
11099;BME280;12223;42.650;23.364;2023-07-13T07:42:31;95012.22;;;31.29;43.97
11099;BME280;12223;42.650;23.364;2023-07-13T07:44:58;95011.00;;;31.54;43.61
11099;BME280;12223;42.650;23.364;2023-07-13T07:47:26;94996.50;;;31.93;42.82
11099;BME280;12223;42.650;23.364;2023-07-13T07:49:52;95001.91;;;32.33;41.99
11099;BME280;12223;42.650;23.364;2023-07-13T07:52:19;95004.03;;;32.56;41.08
11099;BME280;12223;42.650;23.364;2023-07-13T07:54:46;95001.41;;;32.75;40.87
11099;BME280;12223;42.650;23.364;2023-07-13T07:57:14;94996.53;;;32.84;40.99
11099;BME280;12223;42.650;23.364;2023-07-13T07:59:41;94995.84;;;32.87;41.15
11099;BME280;12223;42.650;23.364;2023-07-13T08:02:10;94998.69;;;32.75;40.83
11099;BME280;12223;42.650;23.364;2023-07-13T08:04:37;94999.38;;;32.72;40.11
11099;BME280;12223;42.650;23.364;2023-07-13T08:07:04;94984.72;;;32.80;40.31
11099;BME280;12223;42.650;23.364;2023-07-13T08:09:31;94983.47;;;32.93;39.73
11099;BME280;12223;42.650;23.364;2023-07-13T08:11:58;94983.13;;;33.14;38.92
11099;BME280;12223;42.650;23.364;2023-07-13T08:14:26;94975.94;;;33.06;38.51
11099;BME280;12223;42.650;23.364;2023-07-13T08:16:53;94979.16;;;32.92;39.17
11099;BME280;12223;42.650;23.364;2023-07-13T08:19:20;94975.53;;;32.57;39.74
11099;BME280;12223;42.650;23.364;2023-07-13T08:21:47;94977.50;;;32.72;39.51
11099;BME280;12223;42.650;23.364;2023-07-13T08:24:14;94964.34;;;32.62;39.92
11099;BME280;12223;42.650;23.364;2023-07-13T08:26:44;94965.13;;;32.78;40.81
11099;BME280;12223;42.650;23.364;2023-07-13T08:29:10;94970.94;;;32.92;41.30
11099;BME280;12223;42.650;23.364;2023-07-13T08:31:38;94969.28;;;32.88;40.09
11099;BME280;12223;42.650;23.364;2023-07-13T08:34:05;94961.69;;;32.81;38.77
11099;BME280;12223;42.650;23.364;2023-07-13T08:36:32;94960.28;;;32.56;38.77
11099;BME280;12223;42.650;23.364;2023-07-13T08:38:59;94964.34;;;32.46;39.81
11099;BME280;12223;42.650;23.364;2023-07-13T08:41:26;94958.28;;;32.68;39.86
11099;BME280;12223;42.650;23.364;2023-07-13T08:43:57;94949.91;;;32.96;39.45
11099;BME280;12223;42.650;23.364;2023-07-13T08:46:28;94955.16;;;33.21;38.42
11099;BME280;12223;42.650;23.364;2023-07-13T08:49:01;94950.88;;;33.20;38.27
11099;BME280;12223;42.650;23.364;2023-07-13T08:51:36;94940.91;;;33.31;38.69
11099;BME280;12223;42.650;23.364;2023-07-13T08:54:14;94944.22;;;33.40;39.33
11099;BME280;12223;42.650;23.364;2023-07-13T08:56:45;94954.22;;;33.51;39.77
11099;BME280;12223;42.650;23.364;2023-07-13T08:59:14;94958.81;;;33.63;40.54
11099;BME280;12223;42.650;23.364;2023-07-13T09:02:03;94954.97;;;33.48;39.40
11099;BME280;12223;42.650;23.364;2023-07-13T09:04:36;94967.69;;;32.87;39.69
11099;BME280;12223;42.650;23.364;2023-07-13T09:07:13;94974.47;;;32.77;41.46
11099;BME280;12223;42.650;23.364;2023-07-13T09:09:52;94982.97;;;32.56;41.68
11099;BME280;12223;42.650;23.364;2023-07-13T09:12:30;94984.38;;;32.34;40.66
11099;BME280;12223;42.650;23.364;2023-07-13T09:15:02;94976.41;;;32.45;40.31
11099;BME280;12223;42.650;23.364;2023-07-13T09:17:35;94988.88;;;32.43;41.81
11099;BME280;12223;42.650;23.364;2023-07-13T09:20:17;94986.31;;;32.34;41.32
11099;BME280;12223;42.650;23.364;2023-07-13T09:22:49;94981.19;;;32.32;40.88
11099;BME280;12223;42.650;23.364;2023-07-13T09:25:24;94982.44;;;32.35;43.02
11099;BME280;12223;42.650;23.364;2023-07-13T09:27:55;94981.34;;;32.40;41.01
11099;BME280;12223;42.650;23.364;2023-07-13T09:30:30;94982.50;;;32.39;41.84
11099;BME280;12223;42.650;23.364;2023-07-13T09:32:58;94987.28;;;32.42;41.49
11099;BME280;12223;42.650;23.364;2023-07-13T09:35:28;94970.16;;;32.45;41.24
11099;BME280;12223;42.650;23.364;2023-07-13T09:38:03;94973.25;;;32.59;39.74
11099;BME280;12223;42.650;23.364;2023-07-13T09:40:39;94980.31;;;32.28;40.29
11099;BME280;12223;42.650;23.364;2023-07-13T09:43:08;94972.47;;;32.43;42.64
11099;BME280;12223;42.650;23.364;2023-07-13T09:45:37;94968.84;;;32.70;41.20
11099;BME280;12223;42.650;23.364;2023-07-13T09:48:06;94966.34;;;32.96;40.15
11099;BME280;12223;42.650;23.364;2023-07-13T09:50:35;94974.56;;;33.16;39.67
11099;BME280;12223;42.650;23.364;2023-07-13T09:53:02;94953.88;;;33.34;39.01
11099;BME280;12223;42.650;23.364;2023-07-13T09:55:31;94956.31;;;33.39;39.09
11099;BME280;12223;42.650;23.364;2023-07-13T09:58:03;94942.78;;;33.27;38.40
11099;BME280;12223;42.650;23.364;2023-07-13T10:00:30;94943.56;;;33.27;38.30
11099;BME280;12223;42.650;23.364;2023-07-13T10:03:02;94940.31;;;33.22;37.74
11099;BME280;12223;42.650;23.364;2023-07-13T10:05:39;94938.59;;;33.33;37.47
11099;BME280;12223;42.650;23.364;2023-07-13T10:08:16;94936.09;;;33.63;36.77
11099;BME280;12223;42.650;23.364;2023-07-13T10:10:44;94923.19;;;33.82;37.08
11099;BME280;12223;42.650;23.364;2023-07-13T10:13:25;94928.59;;;34.21;37.34
11099;BME280;12223;42.650;23.364;2023-07-13T10:15:53;94925.31;;;34.15;35.55
11099;BME280;12223;42.650;23.364;2023-07-13T10:18:21;94926.00;;;34.09;36.69
11099;BME280;12223;42.650;23.364;2023-07-13T10:20:50;94924.97;;;33.94;35.49
11099;BME280;12223;42.650;23.364;2023-07-13T10:23:23;94919.84;;;33.92;35.81
11099;BME280;12223;42.650;23.364;2023-07-13T10:25:54;94924.66;;;33.76;35.91
11099;BME280;12223;42.650;23.364;2023-07-13T10:28:27;94921.22;;;33.83;36.45
11099;BME280;12223;42.650;23.364;2023-07-13T10:30:58;94920.63;;;33.93;36.44
11099;BME280;12223;42.650;23.364;2023-07-13T10:33:26;94915.88;;;33.90;35.89
11099;BME280;12223;42.650;23.364;2023-07-13T10:36:12;94915.16;;;33.93;35.67
11099;BME280;12223;42.650;23.364;2023-07-13T10:38:40;94912.19;;;34.02;35.18
11099;BME280;12223;42.650;23.364;2023-07-13T10:41:11;94909.09;;;34.26;34.85
11099;BME280;12223;42.650;23.364;2023-07-13T10:43:42;94904.25;;;34.42;33.89
11099;BME280;12223;42.650;23.364;2023-07-13T10:46:11;94903.38;;;34.61;33.83
11099;BME280;12223;42.650;23.364;2023-07-13T10:48:40;94893.16;;;34.58;33.54
11099;BME280;12223;42.650;23.364;2023-07-13T10:51:15;94884.28;;;34.68;33.56
11099;BME280;12223;42.650;23.364;2023-07-13T10:53:42;94883.50;;;34.94;33.58
11099;BME280;12223;42.650;23.364;2023-07-13T10:56:22;94862.44;;;35.01;33.02
11099;BME280;12223;42.650;23.364;2023-07-13T10:59:01;94876.06;;;35.24;33.51
11099;BME280;12223;42.650;23.364;2023-07-13T11:01:39;94868.25;;;35.26;26.97
11099;BME280;12223;42.650;23.364;2023-07-13T11:04:12;94843.72;;;35.40;28.86
11099;BME280;12223;42.650;23.364;2023-07-13T11:06:42;94860.38;;;35.25;24.92
11099;BME280;12223;42.650;23.364;2023-07-13T11:09:31;94855.81;;;35.06;24.59
11099;BME280;12223;42.650;23.364;2023-07-13T11:11:59;94846.22;;;34.93;26.62
11099;BME280;12223;42.650;23.364;2023-07-13T11:14:29;94839.44;;;34.57;26.46
11099;BME280;12223;42.650;23.364;2023-07-13T11:16:57;94839.47;;;34.83;30.47
11099;BME280;12223;42.650;23.364;2023-07-13T11:19:38;94847.09;;;35.27;29.13
11099;BME280;12223;42.650;23.364;2023-07-13T11:22:16;94842.28;;;35.54;27.83
11099;BME280;12223;42.650;23.364;2023-07-13T11:25:01;94842.50;;;35.71;27.39
11099;BME280;12223;42.650;23.364;2023-07-13T11:27:38;94845.41;;;35.93;28.18
11099;BME280;12223;42.650;23.364;2023-07-13T11:30:22;94836.88;;;36.01;33.21
11099;BME280;12223;42.650;23.364;2023-07-13T11:32:52;94836.44;;;35.99;32.50
11099;BME280;12223;42.650;23.364;2023-07-13T11:35:32;94837.75;;;36.12;31.58
11099;BME280;12223;42.650;23.364;2023-07-13T11:38:01;94827.19;;;36.18;30.22
11099;BME280;12223;42.650;23.364;2023-07-13T11:40:30;94828.09;;;36.29;30.63
11099;BME280;12223;42.650;23.364;2023-07-13T11:43:00;94832.47;;;36.37;29.97
11099;BME280;12223;42.650;23.364;2023-07-13T11:45:27;94828.97;;;36.44;29.30
11099;BME280;12223;42.650;23.364;2023-07-13T11:47:54;94837.63;;;36.46;29.98
11099;BME280;12223;42.650;23.364;2023-07-13T11:50:23;94827.41;;;36.46;28.21
11099;BME280;12223;42.650;23.364;2023-07-13T11:52:52;94830.22;;;36.57;28.86
11099;BME280;12223;42.650;23.364;2023-07-13T11:55:23;94825.53;;;36.57;28.02
11099;BME280;12223;42.650;23.364;2023-07-13T11:57:52;94822.34;;;36.52;26.74
11099;BME280;12223;42.650;23.364;2023-07-13T12:00:25;94821.03;;;36.32;27.05
11099;BME280;12223;42.650;23.364;2023-07-13T12:02:55;94818.09;;;36.10;28.66
11099;BME280;12223;42.650;23.364;2023-07-13T12:05:23;94816.31;;;36.29;26.70
11099;BME280;12223;42.650;23.364;2023-07-13T12:07:50;94808.16;;;36.50;26.57
11099;BME280;12223;42.650;23.364;2023-07-13T12:10:25;94801.13;;;36.56;25.82
11099;BME280;12223;42.650;23.364;2023-07-13T12:12:56;94805.09;;;36.62;24.91
11099;BME280;12223;42.650;23.364;2023-07-13T12:15:28;94804.41;;;36.72;25.03
11099;BME280;12223;42.650;23.364;2023-07-13T12:17:57;94811.84;;;36.64;25.07
11099;BME280;12223;42.650;23.364;2023-07-13T12:20:27;94796.31;;;36.39;25.25
11099;BME280;12223;42.650;23.364;2023-07-13T12:22:56;94795.78;;;36.19;25.45
11099;BME280;12223;42.650;23.364;2023-07-13T12:25:24;94781.75;;;35.87;24.97
11099;BME280;12223;42.650;23.364;2023-07-13T12:27:52;94776.25;;;35.87;25.72
11099;BME280;12223;42.650;23.364;2023-07-13T12:30:25;94772.28;;;35.81;25.54
11099;BME280;12223;42.650;23.364;2023-07-13T12:32:59;94767.88;;;35.69;25.87
11099;BME280;12223;42.650;23.364;2023-07-13T12:35:28;94757.81;;;35.84;26.98
11099;BME280;12223;42.650;23.364;2023-07-13T12:37:59;94751.81;;;35.75;26.97
11099;BME280;12223;42.650;23.364;2023-07-13T12:40:32;94760.56;;;35.87;27.20
11099;BME280;12223;42.650;23.364;2023-07-13T12:43:00;94767.91;;;36.17;27.07
11099;BME280;12223;42.650;23.364;2023-07-13T12:45:30;94741.72;;;36.41;26.61
11099;BME280;12223;42.650;23.364;2023-07-13T12:47:59;94756.81;;;36.68;26.71
11099;BME280;12223;42.650;23.364;2023-07-13T12:50:34;94755.25;;;36.71;28.69
11099;BME280;12223;42.650;23.364;2023-07-13T12:53:05;94747.75;;;36.67;28.64
11099;BME280;12223;42.650;23.364;2023-07-13T12:55:42;94748.97;;;36.70;28.59